createdAt,value
2022-09-04T00:00:22.591Z,0.00
2022-09-04T00:01:22.578Z,0.00
2022-09-04T00:02:22.564Z,0.00
2022-09-04T00:03:22.551Z,0.00
2022-09-04T00:04:22.625Z,0.00
2022-09-04T00:05:22.519Z,0.00
2022-09-04T00:06:22.505Z,0.00
2022-09-04T00:07:22.489Z,0.00
2022-09-04T00:08:22.506Z,0.00
2022-09-04T00:09:22.460Z,0.00
2022-09-04T00:10:22.445Z,0.00
2022-09-04T00:11:22.430Z,0.00
2022-09-04T00:12:26.668Z,0.00
2022-09-04T00:13:22.399Z,0.00
2022-09-04T00:14:22.385Z,0.00
2022-09-04T00:15:22.372Z,0.00
2022-09-04T00:16:22.405Z,0.00
2022-09-04T00:17:22.341Z,0.00
2022-09-04T00:18:22.376Z,0.00
2022-09-04T00:19:22.310Z,0.00
2022-09-04T00:20:22.294Z,0.00
2022-09-04T00:21:22.283Z,0.00
2022-09-04T00:22:22.267Z,0.00
2022-09-04T00:23:22.252Z,0.00
2022-09-04T00:24:22.234Z,0.00
2022-09-04T00:25:22.223Z,0.00
2022-09-04T00:26:22.203Z,0.00
2022-09-04T00:27:22.196Z,0.00
2022-09-04T00:28:22.226Z,0.00
2022-09-04T00:29:22.163Z,0.00
2022-09-04T00:30:22.147Z,0.00
2022-09-04T00:31:22.208Z,0.00
2022-09-04T00:32:22.127Z,0.00
2022-09-04T00:33:22.103Z,0.00
2022-09-04T00:34:22.086Z,0.00
2022-09-04T00:35:22.073Z,0.00
2022-09-04T00:36:22.059Z,0.00
2022-09-04T00:37:22.043Z,0.00
2022-09-04T00:38:22.091Z,0.00
2022-09-04T00:39:22.048Z,0.00
2022-09-04T00:40:21.997Z,0.00
2022-09-04T00:41:21.983Z,0.00
2022-09-04T00:42:21.968Z,0.00
2022-09-04T00:43:21.957Z,0.00
2022-09-04T00:44:21.938Z,0.00
2022-09-04T00:45:21.925Z,0.00
2022-09-04T00:46:22.097Z,0.00
2022-09-04T00:47:22.016Z,0.00
2022-09-04T00:48:21.882Z,0.00
2022-09-04T00:49:21.909Z,0.00
2022-09-04T00:50:21.845Z,0.00
2022-09-04T00:51:21.834Z,0.00
2022-09-04T00:52:21.817Z,0.00
2022-09-04T00:53:21.804Z,0.00
2022-09-04T00:54:21.788Z,0.00
2022-09-04T00:55:21.773Z,0.00
2022-09-04T00:56:21.757Z,0.00
2022-09-04T00:57:21.743Z,0.00
2022-09-04T00:58:21.736Z,0.00
2022-09-04T00:59:21.716Z,0.00
2022-09-04T01:00:21.698Z,0.00
2022-09-04T01:01:21.796Z,0.00
2022-09-04T01:02:21.698Z,0.00
2022-09-04T01:03:21.656Z,0.00
2022-09-04T01:04:21.648Z,0.00
2022-09-04T01:05:21.646Z,0.00
2022-09-04T01:06:21.610Z,0.00
2022-09-04T01:07:21.596Z,0.00
2022-09-04T01:08:21.606Z,0.00
2022-09-04T01:09:21.562Z,0.00
2022-09-04T01:10:21.548Z,0.00
2022-09-04T01:11:21.541Z,0.00
2022-09-04T01:12:21.520Z,0.00
2022-09-04T01:13:21.511Z,0.00
2022-09-04T01:14:21.492Z,0.00
2022-09-04T01:15:21.475Z,0.00
2022-09-04T01:16:21.494Z,0.00
2022-09-04T01:17:21.447Z,0.00
2022-09-04T01:18:21.429Z,0.00
2022-09-04T01:19:21.422Z,0.00
2022-09-04T01:20:21.403Z,0.00
2022-09-04T01:21:21.383Z,0.00
2022-09-04T01:22:21.372Z,0.00
2022-09-04T01:23:21.355Z,0.00
2022-09-04T01:24:21.340Z,0.00
2022-09-04T01:25:21.325Z,0.00
2022-09-04T01:26:21.308Z,0.00
2022-09-04T01:27:21.294Z,0.00
2022-09-04T01:28:21.282Z,0.00
2022-09-04T01:29:21.266Z,0.00
2022-09-04T01:30:21.248Z,0.00
2022-09-04T01:31:21.263Z,0.00
2022-09-04T01:32:21.219Z,0.00
2022-09-04T01:33:21.207Z,0.00
2022-09-04T01:34:21.188Z,0.00
2022-09-04T01:35:21.175Z,0.00
2022-09-04T01:36:21.160Z,0.00
2022-09-04T01:37:21.144Z,0.00
2022-09-04T01:38:21.132Z,0.00
2022-09-04T01:39:21.156Z,0.00
2022-09-04T01:40:21.104Z,0.00
2022-09-04T01:41:21.087Z,0.00
2022-09-04T01:42:21.070Z,0.00
2022-09-04T01:43:21.086Z,0.00
2022-09-04T01:44:21.040Z,0.00
2022-09-04T01:45:21.034Z,0.00
2022-09-04T01:46:21.015Z,0.00
2022-09-04T01:47:21.002Z,0.00
2022-09-04T01:48:20.982Z,0.00
2022-09-04T01:49:20.965Z,0.00
2022-09-04T01:50:20.952Z,0.00
2022-09-04T01:51:20.934Z,0.00
2022-09-04T01:52:20.920Z,0.00
2022-09-04T01:53:20.907Z,0.00
2022-09-04T01:54:20.893Z,0.00
2022-09-04T01:55:20.875Z,0.00
2022-09-04T01:56:20.865Z,0.00
2022-09-04T01:57:20.846Z,0.00
2022-09-04T01:58:20.870Z,0.00
2022-09-04T01:59:20.816Z,0.00
2022-09-04T02:00:20.804Z,0.00
2022-09-04T02:01:21.125Z,0.00
2022-09-04T02:02:20.804Z,0.00
2022-09-04T02:03:20.757Z,0.00
2022-09-04T02:04:20.744Z,0.00
2022-09-04T02:05:20.725Z,0.00
2022-09-04T02:06:20.714Z,0.00
2022-09-04T02:07:20.696Z,0.00
2022-09-04T02:08:20.684Z,0.00
2022-09-04T02:09:20.665Z,0.00
2022-09-04T02:10:20.654Z,0.00
2022-09-04T02:11:20.640Z,0.00
2022-09-04T02:12:20.623Z,0.00
2022-09-04T02:13:20.606Z,0.00
2022-09-04T02:14:20.591Z,0.00
2022-09-04T02:15:20.575Z,0.00
2022-09-04T02:16:20.648Z,0.00
2022-09-04T02:17:20.548Z,0.00
2022-09-04T02:18:20.598Z,0.00
2022-09-04T02:19:20.516Z,0.00
2022-09-04T02:20:20.511Z,0.00
2022-09-04T02:21:20.487Z,0.00
2022-09-04T02:22:20.473Z,0.00
2022-09-04T02:23:20.459Z,0.00
2022-09-04T02:24:20.447Z,0.00
2022-09-04T02:25:20.424Z,0.00
2022-09-04T02:26:20.411Z,0.00
2022-09-04T02:27:20.396Z,0.00
2022-09-04T02:28:20.440Z,0.00
2022-09-04T02:29:20.367Z,0.00
2022-09-04T02:30:20.366Z,0.00
2022-09-04T02:31:20.427Z,0.00
2022-09-04T02:32:20.329Z,0.00
2022-09-04T02:33:20.307Z,0.00
2022-09-04T02:34:20.290Z,0.00
2022-09-04T02:35:20.278Z,0.00
2022-09-04T02:36:20.261Z,0.00
2022-09-04T02:37:20.245Z,0.00
2022-09-04T02:38:20.316Z,0.00
2022-09-04T02:39:20.240Z,0.00
2022-09-04T02:40:20.203Z,0.00
2022-09-04T02:41:20.187Z,0.00
2022-09-04T02:42:20.172Z,0.00
2022-09-04T02:43:20.157Z,0.00
2022-09-04T02:44:20.141Z,0.00
2022-09-04T02:45:20.124Z,0.00
2022-09-04T02:46:20.149Z,0.00
2022-09-04T02:47:20.098Z,0.00
2022-09-04T02:48:20.160Z,0.00
2022-09-04T02:49:20.066Z,0.00
2022-09-04T02:50:20.051Z,0.00
2022-09-04T02:51:20.035Z,0.00
2022-09-04T02:52:20.026Z,0.00
2022-09-04T02:53:20.007Z,0.00
2022-09-04T02:54:19.990Z,0.00
2022-09-04T02:55:19.974Z,0.00
2022-09-04T02:56:19.961Z,0.00
2022-09-04T02:57:19.947Z,0.00
2022-09-04T02:58:19.956Z,0.00
2022-09-04T02:59:19.919Z,0.00
2022-09-04T03:00:21.266Z,0.00
2022-09-04T03:01:19.911Z,0.00
2022-09-04T03:02:19.923Z,0.00
2022-09-04T03:03:19.855Z,0.00
2022-09-04T03:04:19.843Z,0.00
2022-09-04T03:05:19.823Z,0.00
2022-09-04T03:06:19.810Z,0.00
2022-09-04T03:07:19.798Z,0.00
2022-09-04T03:08:19.799Z,0.00
2022-09-04T03:09:19.762Z,0.00
2022-09-04T03:10:19.749Z,0.00
2022-09-04T03:11:19.736Z,0.00
2022-09-04T03:12:19.721Z,0.00
2022-09-04T03:13:19.720Z,0.00
2022-09-04T03:14:19.689Z,0.00
2022-09-04T03:15:19.681Z,0.00
2022-09-04T03:16:19.728Z,0.00
2022-09-04T03:17:19.646Z,0.00
2022-09-04T03:18:19.628Z,0.00
2022-09-04T03:19:19.616Z,0.00
2022-09-04T03:20:19.600Z,0.00
2022-09-04T03:21:19.581Z,0.00
2022-09-04T03:22:19.568Z,0.00
2022-09-04T03:23:19.552Z,0.00
2022-09-04T03:24:19.543Z,0.00
2022-09-04T03:25:19.522Z,0.00
2022-09-04T03:26:19.507Z,0.00
2022-09-04T03:27:19.503Z,0.00
2022-09-04T03:28:19.524Z,0.00
2022-09-04T03:29:19.462Z,0.00
2022-09-04T03:30:19.449Z,0.00
2022-09-04T03:31:19.490Z,0.00
2022-09-04T03:32:19.417Z,0.00
2022-09-04T03:33:19.420Z,0.00
2022-09-04T03:34:19.388Z,0.00
2022-09-04T03:35:19.372Z,0.00
2022-09-04T03:36:19.356Z,0.00
2022-09-04T03:37:19.347Z,0.00
2022-09-04T03:38:19.355Z,0.00
2022-09-04T03:39:19.356Z,0.00
2022-09-04T03:40:19.297Z,0.00
2022-09-04T03:41:19.277Z,0.00
2022-09-04T03:42:19.275Z,0.00
2022-09-04T03:43:19.256Z,0.00
2022-09-04T03:44:19.234Z,0.00
2022-09-04T03:45:19.217Z,0.00
2022-09-04T03:46:19.225Z,0.00
2022-09-04T03:47:19.204Z,0.00
2022-09-04T03:48:19.265Z,0.00
2022-09-04T03:49:19.160Z,0.00
2022-09-04T03:50:19.144Z,0.00
2022-09-04T03:51:19.129Z,0.00
2022-09-04T03:52:19.118Z,0.00
2022-09-04T03:53:19.107Z,0.00
2022-09-04T03:54:19.086Z,0.00
2022-09-04T03:55:19.065Z,0.00
2022-09-04T03:56:19.051Z,0.00
2022-09-04T03:57:19.074Z,0.00
2022-09-04T03:58:19.025Z,0.00
2022-09-04T03:59:19.018Z,0.00
2022-09-04T04:00:18.989Z,0.00
2022-09-04T04:01:24.143Z,0.00
2022-09-04T04:02:18.958Z,0.00
2022-09-04T04:03:18.986Z,0.00
2022-09-04T04:04:18.934Z,0.00
2022-09-04T04:05:18.921Z,0.00
2022-09-04T04:06:18.898Z,0.00
2022-09-04T04:07:18.882Z,0.00
2022-09-04T04:08:18.867Z,0.00
2022-09-04T04:09:18.891Z,0.00
2022-09-04T04:10:18.844Z,0.00
2022-09-04T04:11:18.822Z,0.00
2022-09-04T04:12:18.811Z,0.00
2022-09-04T04:13:18.791Z,0.00
2022-09-04T04:14:18.777Z,0.00
2022-09-04T04:15:18.758Z,0.00
2022-09-04T04:16:18.753Z,0.00
2022-09-04T04:17:20.392Z,0.00
2022-09-04T04:18:18.759Z,0.00
2022-09-04T04:19:18.697Z,0.00
2022-09-04T04:20:18.708Z,0.00
2022-09-04T04:21:18.667Z,0.00
2022-09-04T04:22:18.652Z,0.00
2022-09-04T04:23:18.641Z,0.00
2022-09-04T04:24:18.621Z,0.00
2022-09-04T04:25:18.604Z,0.00
2022-09-04T04:26:18.590Z,0.00
2022-09-04T04:27:18.582Z,0.00
2022-09-04T04:28:18.613Z,0.00
2022-09-04T04:29:18.590Z,0.00
2022-09-04T04:30:18.530Z,0.00
2022-09-04T04:31:18.561Z,0.00
2022-09-04T04:32:18.504Z,0.00
2022-09-04T04:33:18.486Z,0.00
2022-09-04T04:34:18.468Z,0.00
2022-09-04T04:35:18.452Z,0.00
2022-09-04T04:36:18.439Z,0.00
2022-09-04T04:38:26.197Z,0.00
2022-09-04T04:40:22.845Z,0.00
2022-09-04T04:41:22.811Z,0.00
2022-09-04T04:43:27.257Z,0.00
2022-09-04T04:44:27.221Z,0.00
2022-09-04T04:46:31.712Z,0.00
2022-09-04T04:47:31.629Z,0.00
2022-09-04T04:49:36.064Z,0.00
2022-09-04T04:50:36.043Z,0.00
2022-09-04T04:52:40.017Z,0.00
2022-09-04T04:53:39.989Z,0.00
2022-09-04T04:55:44.437Z,0.00
2022-09-04T04:56:44.403Z,0.00
2022-09-04T04:58:37.773Z,0.00
2022-09-04T04:59:37.749Z,5.63
2022-09-04T05:01:41.778Z,5.63
2022-09-04T05:02:41.786Z,5.63
2022-09-04T05:04:45.655Z,5.63
2022-09-04T05:05:45.636Z,5.63
2022-09-04T05:07:50.084Z,5.63
2022-09-04T05:08:50.052Z,5.63
2022-09-04T05:10:54.499Z,5.63
2022-09-04T05:11:54.468Z,5.63
2022-09-04T05:13:58.903Z,5.63
2022-09-04T05:14:58.883Z,5.63
2022-09-04T05:17:02.904Z,5.63
2022-09-04T05:18:02.849Z,11.25
2022-09-04T05:20:07.286Z,11.25
2022-09-04T05:21:07.264Z,11.25
2022-09-04T05:23:11.726Z,11.25
2022-09-04T05:24:11.686Z,11.25
2022-09-04T05:26:16.133Z,11.25
2022-09-04T05:27:16.094Z,11.25
2022-09-04T05:29:20.056Z,11.25
2022-09-04T05:30:20.034Z,11.25
2022-09-04T05:32:24.020Z,11.25
2022-09-04T05:33:23.995Z,11.25
2022-09-04T05:35:31.880Z,16.88
2022-09-04T05:36:28.405Z,16.88
2022-09-04T05:38:21.319Z,16.88
2022-09-04T05:39:21.324Z,16.88
2022-09-04T05:41:25.250Z,16.88
2022-09-04T05:42:25.233Z,16.88
2022-09-04T05:44:29.676Z,22.50
2022-09-04T05:45:29.643Z,22.50
2022-09-04T05:47:34.093Z,28.13
2022-09-04T05:48:34.059Z,28.13
2022-09-04T05:50:38.497Z,28.13
2022-09-04T05:51:38.474Z,28.13
2022-09-04T05:53:42.926Z,33.75
2022-09-04T05:54:42.890Z,33.75
2022-09-04T05:56:47.343Z,33.75
2022-09-04T05:57:47.309Z,33.75
2022-09-04T05:59:51.741Z,39.38
2022-09-04T06:00:51.723Z,39.38
2022-09-04T06:02:56.263Z,39.38
2022-09-04T06:03:56.132Z,39.38
2022-09-04T06:06:00.571Z,39.38
2022-09-04T06:07:00.549Z,45.00
2022-09-04T06:08:53.934Z,45.00
2022-09-04T06:09:53.899Z,45.00
2022-09-04T06:11:58.351Z,45.00
2022-09-04T06:12:58.319Z,45.00
2022-09-04T06:15:02.758Z,45.00
2022-09-04T06:16:02.759Z,45.00
2022-09-04T06:18:07.178Z,50.63
2022-09-04T06:19:07.154Z,50.63
2022-09-04T06:20:07.140Z,50.63
2022-09-04T06:21:07.123Z,50.63
2022-09-04T06:22:07.105Z,50.63
2022-09-04T06:23:07.101Z,56.25
2022-09-04T06:24:07.079Z,56.25
2022-09-04T06:25:07.491Z,56.25
2022-09-04T06:26:07.049Z,56.25
2022-09-04T06:27:07.038Z,56.25
2022-09-04T06:28:07.020Z,56.25
2022-09-04T06:29:07.007Z,61.88
2022-09-04T06:30:06.995Z,61.88
2022-09-04T06:31:07.049Z,61.88
2022-09-04T06:32:06.965Z,61.88
2022-09-04T06:33:06.952Z,61.88
2022-09-04T06:34:06.936Z,61.88
2022-09-04T06:35:06.922Z,67.50
2022-09-04T06:36:06.912Z,67.50
2022-09-04T06:37:06.893Z,67.50
2022-09-04T06:38:06.878Z,67.50
2022-09-04T06:39:06.868Z,67.50
2022-09-04T06:40:06.899Z,67.50
2022-09-04T06:41:06.839Z,73.13
2022-09-04T06:42:06.827Z,73.13
2022-09-04T06:43:06.812Z,73.13
2022-09-04T06:44:06.795Z,73.13
2022-09-04T06:45:06.781Z,73.13
2022-09-04T06:46:06.830Z,73.13
2022-09-04T06:47:06.815Z,73.13
2022-09-04T06:48:06.739Z,73.13
2022-09-04T06:49:06.727Z,73.13
2022-09-04T06:50:06.713Z,78.75
2022-09-04T06:51:06.699Z,78.75
2022-09-04T06:52:06.684Z,78.75
2022-09-04T06:53:06.680Z,78.75
2022-09-04T06:54:06.665Z,78.75
2022-09-04T06:55:06.648Z,84.38
2022-09-04T06:56:06.630Z,84.38
2022-09-04T06:57:06.619Z,84.38
2022-09-04T06:58:06.609Z,90.00
2022-09-04T06:59:06.591Z,90.00
2022-09-04T07:00:06.577Z,90.00
2022-09-04T07:01:06.566Z,90.00
2022-09-04T07:02:06.699Z,95.63
2022-09-04T07:03:06.536Z,95.63
2022-09-04T07:04:06.523Z,95.63
2022-09-04T07:05:06.510Z,95.63
2022-09-04T07:06:06.499Z,101.25
2022-09-04T07:07:06.484Z,101.25
2022-09-04T07:08:06.471Z,101.25
2022-09-04T07:09:06.493Z,106.88
2022-09-04T07:10:10.306Z,106.88
2022-09-04T07:11:06.432Z,106.88
2022-09-04T07:12:06.422Z,112.50
2022-09-04T07:13:06.410Z,112.50
2022-09-04T07:14:06.478Z,112.50
2022-09-04T07:15:06.379Z,118.13
2022-09-04T07:16:06.416Z,118.13
2022-09-04T07:17:06.353Z,123.75
2022-09-04T07:18:06.386Z,123.75
2022-09-04T07:19:06.326Z,129.38
2022-09-04T07:20:06.315Z,129.38
2022-09-04T07:21:06.303Z,129.38
2022-09-04T07:22:06.288Z,135.00
2022-09-04T07:23:06.285Z,140.63
2022-09-04T07:24:06.264Z,140.63
2022-09-04T07:25:06.249Z,140.63
2022-09-04T07:26:06.239Z,146.25
2022-09-04T07:27:06.226Z,146.25
2022-09-04T07:28:06.322Z,151.88
2022-09-04T07:29:06.200Z,157.50
2022-09-04T07:30:06.188Z,163.13
2022-09-04T07:31:06.224Z,163.13
2022-09-04T07:32:06.161Z,168.75
2022-09-04T07:33:06.151Z,174.38
2022-09-04T07:34:06.140Z,180.00
2022-09-04T07:35:06.130Z,180.00
2022-09-04T07:36:06.111Z,185.63
2022-09-04T07:37:06.102Z,191.25
2022-09-04T07:38:06.092Z,196.88
2022-09-04T07:39:06.078Z,202.50
2022-09-04T07:40:08.147Z,208.13
2022-09-04T07:41:06.055Z,213.75
2022-09-04T07:42:06.042Z,219.38
2022-09-04T07:43:06.035Z,225.00
2022-09-04T07:44:06.017Z,230.63
2022-09-04T07:45:06.024Z,236.25
2022-09-04T07:46:06.040Z,247.50
2022-09-04T07:47:05.984Z,253.13
2022-09-04T07:48:05.971Z,258.75
2022-09-04T07:49:05.969Z,270.00
2022-09-04T07:50:05.949Z,275.63
2022-09-04T07:51:05.938Z,286.88
2022-09-04T07:52:05.931Z,298.13
2022-09-04T07:53:10.621Z,309.38
2022-09-04T07:54:06.007Z,309.38
2022-09-04T07:55:05.894Z,320.63
2022-09-04T07:56:05.883Z,326.25
2022-09-04T07:57:05.872Z,331.88
2022-09-04T07:58:05.865Z,337.50
2022-09-04T07:59:05.856Z,343.13
2022-09-04T08:00:05.842Z,354.38
2022-09-04T08:01:05.852Z,365.63
2022-09-04T08:02:05.942Z,371.25
2022-09-04T08:03:05.809Z,382.50
2022-09-04T08:04:05.799Z,388.13
2022-09-04T08:05:05.838Z,388.13
2022-09-04T08:06:05.777Z,393.75
2022-09-04T08:07:10.821Z,405.00
2022-09-04T08:08:05.759Z,416.25
2022-09-04T08:09:05.750Z,421.88
2022-09-04T08:10:05.813Z,427.50
2022-09-04T08:11:05.728Z,433.13
2022-09-04T08:12:05.724Z,438.75
2022-09-04T08:13:05.709Z,444.38
2022-09-04T08:14:05.705Z,450.00
2022-09-04T08:15:05.693Z,450.00
2022-09-04T08:16:05.718Z,455.63
2022-09-04T08:17:05.679Z,455.63
2022-09-04T08:18:05.740Z,461.25
2022-09-04T08:19:05.653Z,472.50
2022-09-04T08:20:05.644Z,478.13
2022-09-04T08:21:05.637Z,478.13
2022-09-04T08:22:05.628Z,483.75
2022-09-04T08:23:05.624Z,489.38
2022-09-04T08:24:05.609Z,489.38
2022-09-04T08:25:05.604Z,489.38
2022-09-04T08:26:05.596Z,495.00
2022-09-04T08:27:05.599Z,506.25
2022-09-04T08:28:05.603Z,500.63
2022-09-04T08:29:05.570Z,506.25
2022-09-04T08:30:05.568Z,506.25
2022-09-04T08:31:05.628Z,511.88
2022-09-04T08:32:05.545Z,511.88
2022-09-04T08:33:05.555Z,511.88
2022-09-04T08:34:05.530Z,506.25
2022-09-04T08:35:05.604Z,511.88
2022-09-04T08:36:05.518Z,517.50
2022-09-04T08:37:05.513Z,523.13
2022-09-04T08:38:05.504Z,523.13
2022-09-04T08:39:07.360Z,523.13
2022-09-04T08:40:05.531Z,523.13
2022-09-04T08:41:05.485Z,523.13
2022-09-04T08:42:05.479Z,528.75
2022-09-04T08:43:05.468Z,528.75
2022-09-04T08:44:05.468Z,534.38
2022-09-04T08:45:05.469Z,528.75
2022-09-04T08:46:05.634Z,528.75
2022-09-04T08:47:05.442Z,528.75
2022-09-04T08:48:05.530Z,528.75
2022-09-04T08:49:05.429Z,528.75
2022-09-04T08:50:05.421Z,523.13
2022-09-04T08:51:05.415Z,534.38
2022-09-04T08:52:05.409Z,528.75
2022-09-04T08:53:05.475Z,528.75
2022-09-04T08:54:05.397Z,523.13
2022-09-04T08:55:05.396Z,523.13
2022-09-04T08:56:05.386Z,523.13
2022-09-04T08:57:05.381Z,534.38
2022-09-04T08:58:05.437Z,534.38
2022-09-04T08:59:05.367Z,528.75
2022-09-04T09:00:05.362Z,528.75
2022-09-04T09:01:05.406Z,534.38
2022-09-04T09:02:05.429Z,534.38
2022-09-04T09:03:05.347Z,534.38
2022-09-04T09:04:05.345Z,534.38
2022-09-04T09:05:05.348Z,528.75
2022-09-04T09:06:05.342Z,528.75
2022-09-04T09:07:05.321Z,528.75
2022-09-04T09:08:05.323Z,517.50
2022-09-04T09:09:05.310Z,528.75
2022-09-04T09:10:05.313Z,528.75
2022-09-04T09:11:05.304Z,534.38
2022-09-04T09:12:05.297Z,534.38
2022-09-04T09:13:05.288Z,534.38
2022-09-04T09:14:05.287Z,534.38
2022-09-04T09:15:05.281Z,528.75
2022-09-04T09:16:05.277Z,534.38
2022-09-04T09:17:05.322Z,540.00
2022-09-04T09:18:05.361Z,534.38
2022-09-04T09:19:05.257Z,534.38
2022-09-04T09:20:05.271Z,534.38
2022-09-04T09:21:05.252Z,528.75
2022-09-04T09:22:05.244Z,523.13
2022-09-04T09:23:05.237Z,523.13
2022-09-04T09:24:05.234Z,528.75
2022-09-04T09:25:05.231Z,528.75
2022-09-04T09:26:05.225Z,517.50
2022-09-04T09:27:05.219Z,506.25
2022-09-04T09:28:05.216Z,528.75
2022-09-04T09:29:05.212Z,534.38
2022-09-04T09:30:05.207Z,478.13
2022-09-04T09:31:05.261Z,118.13
2022-09-04T09:32:05.200Z,545.63
2022-09-04T09:33:05.197Z,534.38
2022-09-04T09:34:05.194Z,534.38
2022-09-04T09:35:05.193Z,534.38
2022-09-04T09:36:05.191Z,534.38
2022-09-04T09:37:05.179Z,534.38
2022-09-04T09:38:05.176Z,534.38
2022-09-04T09:39:05.174Z,534.38
2022-09-04T09:40:05.241Z,540.00
2022-09-04T09:41:05.165Z,540.00
2022-09-04T09:42:05.168Z,551.25
2022-09-04T09:43:05.173Z,545.63
2022-09-04T09:44:05.157Z,534.38
2022-09-04T09:45:05.148Z,545.63
2022-09-04T09:46:05.207Z,545.63
2022-09-04T09:47:05.139Z,545.63
2022-09-04T09:48:07.762Z,545.63
2022-09-04T09:49:05.134Z,545.63
2022-09-04T09:50:05.215Z,540.00
2022-09-04T09:51:05.175Z,540.00
2022-09-04T09:52:05.124Z,540.00
2022-09-04T09:53:05.149Z,534.38
2022-09-04T09:54:05.176Z,540.00
2022-09-04T09:55:05.153Z,551.25
2022-09-04T09:56:05.115Z,551.25
2022-09-04T09:57:05.129Z,556.88
2022-09-04T09:58:05.107Z,551.25
2022-09-04T09:59:05.102Z,556.88
2022-09-04T10:00:05.104Z,568.13
2022-09-04T10:01:08.340Z,129.38
2022-09-04T10:02:05.149Z,579.38
2022-09-04T10:03:05.104Z,573.75
2022-09-04T10:04:05.108Z,573.75
2022-09-04T10:05:05.117Z,579.38
2022-09-04T10:06:05.115Z,590.63
2022-09-04T10:07:05.078Z,579.38
2022-09-04T10:08:05.074Z,590.63
2022-09-04T10:09:09.223Z,579.38
2022-09-04T10:10:05.071Z,579.38
2022-09-04T10:11:05.090Z,579.38
2022-09-04T10:12:05.061Z,573.75
2022-09-04T10:13:05.093Z,590.63
2022-09-04T10:14:05.087Z,168.75
2022-09-04T10:15:05.051Z,585.00
2022-09-04T10:16:05.088Z,590.63
2022-09-04T10:17:05.042Z,596.25
2022-09-04T10:18:05.048Z,225.00
2022-09-04T10:19:05.055Z,275.63
2022-09-04T10:20:05.035Z,585.00
2022-09-04T10:21:05.037Z,573.75
2022-09-04T10:22:05.026Z,596.25
2022-09-04T10:23:05.025Z,624.38
2022-09-04T10:24:05.060Z,613.13
2022-09-04T10:25:05.151Z,230.63
2022-09-04T10:26:05.026Z,528.75
2022-09-04T10:27:05.016Z,196.88
2022-09-04T10:28:05.010Z,163.13
2022-09-04T10:29:05.015Z,163.13
2022-09-04T10:30:05.101Z,185.63
2022-09-04T10:31:05.094Z,630.00
2022-09-04T10:32:04.999Z,658.13
2022-09-04T10:33:09.211Z,663.75
2022-09-04T10:34:04.996Z,303.75
2022-09-04T10:35:04.987Z,652.50
2022-09-04T10:36:04.988Z,652.50
2022-09-04T10:37:05.018Z,646.88
2022-09-04T10:38:04.980Z,646.88
2022-09-04T10:39:04.976Z,568.13
2022-09-04T10:40:12.716Z,613.13
2022-09-04T10:42:09.450Z,607.50
2022-09-04T10:43:09.438Z,618.75
2022-09-04T10:45:13.907Z,613.13
2022-09-04T10:46:22.973Z,624.38
2022-09-04T10:48:18.365Z,618.75
2022-09-04T10:49:18.346Z,326.25
2022-09-04T10:51:11.294Z,354.38
2022-09-04T10:52:11.280Z,624.38
2022-09-04T10:54:15.992Z,618.75
2022-09-04T10:55:15.973Z,624.38
2022-09-04T10:56:15.972Z,652.50
2022-09-04T10:57:15.969Z,663.75
2022-09-04T10:58:15.975Z,658.13
2022-09-04T10:59:15.963Z,534.38
2022-09-04T11:00:15.962Z,630.00
2022-09-04T11:01:15.989Z,663.75
2022-09-04T11:02:16.013Z,646.88
2022-09-04T11:03:15.955Z,658.13
2022-09-04T11:04:15.954Z,652.50
2022-09-04T11:05:15.960Z,652.50
2022-09-04T11:06:15.947Z,669.38
2022-09-04T11:07:15.948Z,663.75
2022-09-04T11:08:15.944Z,652.50
2022-09-04T11:09:15.943Z,658.13
2022-09-04T11:10:15.940Z,680.63
2022-09-04T11:11:15.937Z,680.63
2022-09-04T11:12:15.936Z,680.63
2022-09-04T11:13:15.937Z,686.25
2022-09-04T11:14:15.930Z,691.88
2022-09-04T11:15:15.928Z,703.13
2022-09-04T11:16:15.959Z,708.75
2022-09-04T11:17:15.924Z,697.50
2022-09-04T11:18:15.922Z,703.13
2022-09-04T11:19:15.920Z,703.13
2022-09-04T11:20:18.416Z,703.13
2022-09-04T11:21:15.921Z,703.13
2022-09-04T11:22:15.913Z,697.50
2022-09-04T11:23:15.914Z,686.25
2022-09-04T11:24:15.909Z,686.25
2022-09-04T11:25:15.908Z,720.00
2022-09-04T11:26:15.906Z,523.13
2022-09-04T11:27:15.906Z,742.50
2022-09-04T11:28:16.052Z,759.38
2022-09-04T11:29:15.902Z,765.00
2022-09-04T11:30:15.925Z,748.13
2022-09-04T11:31:15.921Z,472.50
2022-09-04T11:32:15.904Z,714.38
2022-09-04T11:33:15.894Z,146.25
2022-09-04T11:34:15.892Z,151.88
2022-09-04T11:35:15.892Z,140.63
2022-09-04T11:36:15.889Z,174.38
2022-09-04T11:37:15.887Z,781.88
2022-09-04T11:38:15.885Z,781.88
2022-09-04T11:39:15.880Z,787.50
2022-09-04T11:40:15.876Z,787.50
2022-09-04T11:41:15.878Z,781.88
2022-09-04T11:42:15.871Z,523.13
2022-09-04T11:43:15.870Z,675.00
2022-09-04T11:44:15.868Z,371.25
2022-09-04T11:45:15.866Z,742.50
2022-09-04T11:46:15.885Z,219.38
2022-09-04T11:47:15.859Z,354.38
2022-09-04T11:48:15.857Z,241.88
2022-09-04T11:49:15.854Z,213.75
2022-09-04T11:50:15.849Z,579.38
2022-09-04T11:51:15.849Z,821.25
2022-09-04T11:52:15.845Z,551.25
2022-09-04T11:53:15.844Z,883.13
2022-09-04T11:54:15.838Z,303.75
2022-09-04T11:55:15.839Z,275.63
2022-09-04T11:56:15.831Z,315.00
2022-09-04T11:57:15.827Z,866.25
2022-09-04T11:58:15.823Z,860.63
2022-09-04T11:59:15.820Z,860.63
2022-09-04T12:00:15.816Z,871.88
2022-09-04T12:01:15.822Z,860.63
2022-09-04T12:02:15.833Z,855.00
2022-09-04T12:03:15.808Z,849.38
2022-09-04T12:04:15.836Z,866.25
2022-09-04T12:05:15.801Z,855.00
2022-09-04T12:06:15.796Z,843.75
2022-09-04T12:07:15.795Z,821.25
2022-09-04T12:08:15.792Z,798.75
2022-09-04T12:09:15.788Z,826.88
2022-09-04T12:10:15.786Z,838.13
2022-09-04T12:11:15.787Z,832.50
2022-09-04T12:12:15.783Z,860.63
2022-09-04T12:13:15.817Z,855.00
2022-09-04T12:14:15.781Z,866.25
2022-09-04T12:15:15.777Z,821.25
2022-09-04T12:16:15.821Z,759.38
2022-09-04T12:17:15.776Z,191.25
2022-09-04T12:18:15.774Z,146.25
2022-09-04T12:19:15.770Z,135.00
2022-09-04T12:20:15.953Z,135.00
2022-09-04T12:21:15.768Z,236.25
2022-09-04T12:22:15.767Z,635.63
2022-09-04T12:23:15.766Z,292.50
2022-09-04T12:24:15.771Z,804.38
2022-09-04T12:25:15.765Z,770.63
2022-09-04T12:26:15.760Z,883.13
2022-09-04T12:27:15.759Z,888.75
2022-09-04T12:28:15.776Z,900.00
2022-09-04T12:29:15.756Z,900.00
2022-09-04T12:30:15.754Z,894.38
2022-09-04T12:31:15.849Z,883.13
2022-09-04T12:32:15.749Z,900.00
2022-09-04T12:33:15.750Z,933.75
2022-09-04T12:34:15.747Z,601.88
2022-09-04T12:35:15.747Z,871.88
2022-09-04T12:36:15.744Z,855.00
2022-09-04T12:37:15.741Z,860.63
2022-09-04T12:38:15.738Z,855.00
2022-09-04T12:39:15.739Z,759.38
2022-09-04T12:40:15.738Z,826.88
2022-09-04T12:41:15.736Z,838.13
2022-09-04T12:42:15.738Z,815.63
2022-09-04T12:43:15.738Z,832.50
2022-09-04T12:44:15.735Z,843.75
2022-09-04T12:45:15.737Z,855.00
2022-09-04T12:46:15.773Z,866.25
2022-09-04T12:47:15.735Z,860.63
2022-09-04T12:48:15.733Z,849.38
2022-09-04T12:49:15.733Z,866.25
2022-09-04T12:50:15.729Z,866.25
2022-09-04T12:51:15.737Z,866.25
2022-09-04T12:52:15.728Z,860.63
2022-09-04T12:53:15.731Z,832.50
2022-09-04T12:54:15.728Z,838.13
2022-09-04T12:55:15.727Z,838.13
2022-09-04T12:56:15.727Z,826.88
2022-09-04T12:57:15.728Z,793.13
2022-09-04T12:58:15.725Z,787.50
2022-09-04T12:59:16.053Z,810.00
2022-09-04T13:00:15.724Z,810.00
2022-09-04T13:01:15.799Z,815.63
2022-09-04T13:02:15.866Z,804.38
2022-09-04T13:03:15.727Z,821.25
2022-09-04T13:04:15.724Z,821.25
2022-09-04T13:05:15.725Z,821.25
2022-09-04T13:06:15.722Z,826.88
2022-09-04T13:07:16.522Z,810.00
2022-09-04T13:08:15.723Z,815.63
2022-09-04T13:09:15.725Z,810.00
2022-09-04T13:10:15.721Z,821.25
2022-09-04T13:11:15.720Z,826.88
2022-09-04T13:12:15.719Z,821.25
2022-09-04T13:13:15.727Z,815.63
2022-09-04T13:14:15.716Z,810.00
2022-09-04T13:15:15.717Z,804.38
2022-09-04T13:16:15.751Z,798.75
2022-09-04T13:17:15.719Z,798.75
2022-09-04T13:18:15.716Z,787.50
2022-09-04T13:19:15.718Z,770.63
2022-09-04T13:20:15.716Z,770.63
2022-09-04T13:21:15.715Z,765.00
2022-09-04T13:22:15.714Z,731.25
2022-09-04T13:23:15.717Z,736.88
2022-09-04T13:24:15.716Z,759.38
2022-09-04T13:25:15.716Z,753.75
2022-09-04T13:26:16.628Z,725.63
2022-09-04T13:27:15.714Z,765.00
2022-09-04T13:28:17.178Z,787.50
2022-09-04T13:29:15.714Z,781.88
2022-09-04T13:30:15.713Z,770.63
2022-09-04T13:31:15.752Z,765.00